Terminal Aerodrome Forecast
Issued by NWS Sioux Falls, SD

Home | Current Version | Previous Version | Graphics & Text | Print | Product List | Glossary On
Versions: 1 2 3 4 5 6 7 8 9 10 11 12 13 14
869
FTUS43 KFSD 222328
TAFHON
TAF
KHON 222328Z 2300/2324 34009KT P6SM BKN080
     FM230800 32007KT P6SM OVC035
     FM231200 33010KT P6SM OVC025
     FM231400 33013G20KT P6SM VCSH OVC020
     FM231800 35016G24KT P6SM OVC025
     FM232200 36016G24KT P6SM BKN035=

USA.gov is the U.S. government's official web portal to all federal, state and local government web resources and services.